Clear Sky Current Weather (METAR) For Antalya Airport

All times on the weather descriptions are local

Observed at 22:20 - (31 mins ago)

Clear Sky

14°C

Clear Sky
Clouds:
Wind: 300° at 07 knots
Visibility: Greater than 10km
QNH: 1016
Dew Point: 1°C
Runway in Use: Likely Runways 36L/C/R

Sunrise Today: 06:42
Sunset Today: 16:44

Forecast Weather (TAF) For Antalya Airport

Issued at 02:00 - (6 days 3 hrs ago)


Runway in Use: Unable to determine, wind is clam

Forecast valid until 02:00 on Sunday

METAR/TAF RAW METAR / TAF

LTAI 232020Z 30007KT CAVOK 14/01 Q1016 NOSIG

Weather Widget

Put weather from any of our airports on your website with our weather widget.

Find Another Search

Airport Search


Please Wait Please Wait - Loading
Close
Close

Login

Username:

Password:

Remember Me:

Remember me on this computer

Forgotten your password? Get a reset password sent to your registered e-mail address

Close

User Private Message

Subject:

Message: